createdAt,value
2023-04-05T00:01:39.385Z,0.88
2023-04-05T00:04:08.306Z,0.93
2023-04-05T00:06:39.931Z,0.82
2023-04-05T00:09:10.059Z,0.74
2023-04-05T00:11:40.712Z,0.77
2023-04-05T00:14:09.229Z,0.73
2023-04-05T00:16:38.313Z,0.73
2023-04-05T00:19:07.188Z,0.62
2023-04-05T00:21:35.794Z,0.54
2023-04-05T00:24:04.064Z,0.56
2023-04-05T00:26:34.095Z,0.52
2023-04-05T00:29:03.691Z,0.39
2023-04-05T00:31:32.187Z,0.30
2023-04-05T00:34:00.658Z,0.20
2023-04-05T00:36:35.231Z,0.11
2023-04-05T00:39:04.889Z,0.05
2023-04-05T00:41:33.248Z,-0.01
2023-04-05T00:44:04.303Z,-0.05
2023-04-05T00:46:36.393Z,-0.12
2023-04-05T00:49:06.159Z,-0.22
2023-04-05T00:51:35.342Z,-0.32
2023-04-05T00:54:03.721Z,-0.35
2023-04-05T00:56:32.292Z,-0.18
2023-04-05T00:59:02.841Z,-0.10
2023-04-05T01:01:34.434Z,-0.02
2023-04-05T01:04:07.530Z,0.01
2023-04-05T01:06:58.038Z,0.04
2023-04-05T01:09:39.170Z,-0.01
2023-04-05T01:12:10.352Z,-0.10
2023-04-05T01:14:49.907Z,-0.21
2023-04-05T01:17:22.191Z,-0.31
2023-04-05T01:19:58.795Z,-0.37
2023-04-05T01:22:55.640Z,-0.37
2023-04-05T01:25:38.049Z,-0.45
2023-04-05T01:28:30.439Z,-0.55
2023-04-05T01:31:08.608Z,-0.62
2023-04-05T01:33:46.654Z,-0.68
2023-04-05T01:36:28.020Z,-0.70
2023-04-05T01:38:58.389Z,-0.67
2023-04-05T01:41:29.045Z,-0.65
2023-04-05T01:43:59.229Z,-0.75
2023-04-05T01:46:29.328Z,-0.83
2023-04-05T01:48:58.059Z,-0.85
2023-04-05T01:51:26.741Z,-0.87
2023-04-05T01:53:54.953Z,-0.91
2023-04-05T01:56:24.728Z,-0.90
2023-04-05T01:58:53.317Z,-0.92
2023-04-05T02:01:21.758Z,-0.87
2023-04-05T02:03:51.663Z,-0.82
2023-04-05T02:06:20.509Z,-0.86
2023-04-05T02:08:48.934Z,-0.95
2023-04-05T02:11:23.726Z,-1.03
2023-04-05T02:13:54.315Z,-1.02
2023-04-05T02:16:27.062Z,-1.01
2023-04-05T02:18:58.740Z,-0.92
2023-04-05T02:21:27.489Z,-0.91
2023-04-05T02:23:56.589Z,-0.89
2023-04-05T02:26:25.182Z,-0.97
2023-04-05T02:28:53.406Z,-1.03
2023-04-05T02:31:22.972Z,-1.09
2023-04-05T02:33:51.227Z,-1.10
2023-04-05T02:36:22.232Z,-1.14
2023-04-05T02:38:50.965Z,-1.11
2023-04-05T02:41:20.279Z,-1.10
2023-04-05T02:43:50.073Z,-1.02
2023-04-05T02:46:18.808Z,-0.94
2023-04-05T02:48:47.783Z,-0.95
2023-04-05T02:51:21.070Z,-1.05
2023-04-05T02:53:50.801Z,-1.14
2023-04-05T02:56:19.508Z,-1.17
2023-04-05T02:58:50.317Z,-1.22
2023-04-05T03:01:24.499Z,-1.27
2023-04-05T03:03:52.846Z,-1.33
2023-04-05T03:06:24.548Z,-1.41
2023-04-05T03:08:56.007Z,-1.48
2023-04-05T03:11:26.487Z,-1.56
2023-04-05T03:13:59.982Z,-1.64
2023-04-05T03:16:37.360Z,-1.68
2023-04-05T03:19:18.790Z,-1.72
2023-04-05T03:21:48.031Z,-1.76
2023-04-05T03:24:27.719Z,-1.80
2023-04-05T03:27:03.237Z,-1.87
2023-04-05T03:29:36.145Z,-1.92
2023-04-05T03:32:13.946Z,-2.01
2023-04-05T03:34:49.175Z,-2.02
2023-04-05T03:37:19.422Z,-2.02
2023-04-05T03:39:59.332Z,-1.99
2023-04-05T03:42:27.586Z,-1.97
2023-04-05T03:44:56.617Z,-2.00
2023-04-05T03:47:24.971Z,-2.01
2023-04-05T03:49:54.238Z,-2.02
2023-04-05T03:52:22.347Z,-2.09
2023-04-05T03:54:54.122Z,-2.12
2023-04-05T03:57:28.279Z,-2.17
2023-04-05T04:00:00.401Z,-2.19
2023-04-05T04:02:32.035Z,-2.18
2023-04-05T04:05:02.196Z,-2.22
2023-04-05T04:07:31.918Z,-2.22
2023-04-05T04:10:04.679Z,-2.22
2023-04-05T04:12:37.225Z,-2.21
2023-04-05T04:15:06.827Z,-2.18
2023-04-05T04:17:45.959Z,-2.24
2023-04-05T04:20:41.167Z,-2.27
2023-04-05T04:23:30.628Z,-2.28
2023-04-05T04:26:26.774Z,-2.33
2023-04-05T04:29:12.792Z,-2.17
2023-04-05T04:31:57.636Z,-2.06
2023-04-05T04:34:55.901Z,-2.04
2023-04-05T04:38:01.277Z,-1.94
2023-04-05T04:40:53.896Z,-1.81
2023-04-05T04:43:29.191Z,-1.80
2023-04-05T04:46:19.197Z,-1.75
2023-04-05T04:49:05.678Z,-1.70
2023-04-05T04:51:33.917Z,-1.69
2023-04-05T04:54:02.168Z,-1.76
2023-04-05T04:56:30.697Z,-1.81
2023-04-05T04:59:01.160Z,-1.83
2023-04-05T05:01:34.278Z,-1.76
2023-04-05T05:04:10.356Z,-1.64
2023-04-05T05:06:46.129Z,-1.62
2023-04-05T05:09:18.432Z,-1.68
2023-04-05T05:11:53.054Z,-1.70
2023-04-05T05:14:23.336Z,-1.75
2023-04-05T05:16:54.679Z,-1.80
2023-04-05T05:19:24.287Z,-1.77
2023-04-05T05:22:13.944Z,-1.73
2023-04-05T05:24:42.602Z,-1.67
2023-04-05T05:27:11.000Z,-1.65
2023-04-05T05:29:39.654Z,-1.71
2023-04-05T05:32:14.363Z,-1.64
2023-04-05T05:34:45.328Z,-1.56
2023-04-05T05:37:17.397Z,-1.54
2023-04-05T05:39:47.868Z,-1.52
2023-04-05T05:42:16.161Z,-1.49
2023-04-05T05:44:45.914Z,-1.52
2023-04-05T05:47:15.878Z,-1.47
2023-04-05T05:49:45.272Z,-1.44
2023-04-05T05:52:13.796Z,-1.33
2023-04-05T05:54:42.004Z,-1.23
2023-04-05T05:57:10.882Z,-1.11
2023-04-05T05:59:39.787Z,-0.99
2023-04-05T06:02:08.789Z,-0.83
2023-04-05T06:04:38.875Z,-0.66
2023-04-05T06:07:07.377Z,-0.50
2023-04-05T06:09:36.698Z,-0.32
2023-04-05T06:12:05.263Z,-0.10
2023-04-05T06:14:33.619Z,0.14
2023-04-05T06:17:02.122Z,0.41
2023-04-05T06:19:31.748Z,0.65
2023-04-05T06:22:01.463Z,0.86
2023-04-05T06:24:32.015Z,1.17
2023-04-05T06:27:01.205Z,1.42
2023-04-05T06:29:29.581Z,1.71
2023-04-05T06:31:59.767Z,1.77
2023-04-05T06:34:29.916Z,1.85
2023-04-05T06:36:58.697Z,1.93
2023-04-05T06:39:28.697Z,2.02
2023-04-05T06:41:58.067Z,2.12
2023-04-05T06:44:30.583Z,2.23
2023-04-05T06:46:59.283Z,2.41
2023-04-05T06:49:27.559Z,2.44
2023-04-05T06:51:55.968Z,2.50
2023-04-05T06:54:24.912Z,2.67
2023-04-05T06:56:57.145Z,2.87
2023-04-05T06:59:26.624Z,2.98
2023-04-05T07:01:54.724Z,3.00
2023-04-05T07:04:24.373Z,3.10
2023-04-05T07:06:53.956Z,3.28
2023-04-05T07:09:24.269Z,3.40
2023-04-05T07:11:53.736Z,3.48
2023-04-05T07:14:25.957Z,3.68
2023-04-05T07:16:54.634Z,3.82
2023-04-05T07:19:23.937Z,4.22
2023-04-05T07:21:52.605Z,4.11
2023-04-05T07:24:22.300Z,4.06
2023-04-05T07:26:50.968Z,4.17
2023-04-05T07:29:20.940Z,4.08
2023-04-05T07:31:49.277Z,4.62
2023-04-05T07:34:17.536Z,4.90
2023-04-05T07:36:46.752Z,5.01
2023-04-05T07:39:15.902Z,5.30
2023-04-05T07:41:44.563Z,5.49
2023-04-05T07:44:13.210Z,5.65
2023-04-05T07:46:46.851Z,5.82
2023-04-05T07:49:16.865Z,5.93
2023-04-05T07:51:48.187Z,5.88
2023-04-05T07:54:17.988Z,5.99
2023-04-05T07:56:46.758Z,6.20
2023-04-05T07:59:15.157Z,6.37
2023-04-05T08:01:45.098Z,6.49
2023-04-05T08:04:15.417Z,6.53
2023-04-05T08:06:43.602Z,6.72
2023-04-05T08:09:18.305Z,6.94
2023-04-05T08:11:46.730Z,7.46
2023-04-05T08:14:16.819Z,7.49
2023-04-05T08:16:46.759Z,7.28
2023-04-05T08:19:15.809Z,7.47
2023-04-05T08:21:44.324Z,7.39
2023-04-05T08:24:14.492Z,7.72
2023-04-05T08:26:44.039Z,7.94
2023-04-05T08:29:12.697Z,8.35
2023-04-05T08:31:40.861Z,8.68
2023-04-05T08:34:13.444Z,8.87
2023-04-05T08:36:41.879Z,9.25
2023-04-05T08:39:10.820Z,8.81
2023-04-05T08:41:47.360Z,8.79
2023-04-05T08:44:18.310Z,8.99
2023-04-05T08:46:48.130Z,9.57
2023-04-05T08:49:20.299Z,9.28
2023-04-05T08:51:49.653Z,9.55
2023-04-05T08:54:18.840Z,9.39
2023-04-05T08:56:49.941Z,9.41
2023-04-05T08:59:21.207Z,9.54
2023-04-05T09:01:52.632Z,9.51
2023-04-05T09:04:24.593Z,9.60
2023-04-05T09:06:59.026Z,10.22
2023-04-05T09:09:29.823Z,10.36
2023-04-05T09:11:59.651Z,10.77
2023-04-05T09:14:30.649Z,10.53
2023-04-05T09:17:02.975Z,10.44
2023-04-05T09:19:35.997Z,9.98
2023-04-05T09:22:06.129Z,10.00
2023-04-05T09:24:42.239Z,10.22
2023-04-05T09:27:12.968Z,9.88
2023-04-05T09:29:41.949Z,9.67
2023-04-05T09:32:13.014Z,10.08
2023-04-05T09:34:43.646Z,10.68
2023-04-05T09:37:21.448Z,10.50
2023-04-05T09:39:51.996Z,10.78
2023-04-05T09:42:22.939Z,10.54
2023-04-05T09:44:56.961Z,10.71
2023-04-05T09:47:30.823Z,10.71
2023-04-05T09:50:08.794Z,11.36
2023-04-05T09:52:37.215Z,12.02
2023-04-05T09:55:08.056Z,12.09
2023-04-05T09:57:38.833Z,11.52
2023-04-05T10:00:17.863Z,11.37
2023-04-05T10:02:47.438Z,10.82
2023-04-05T10:05:16.868Z,11.32
2023-04-05T10:07:46.278Z,11.75
2023-04-05T10:10:16.430Z,12.00
2023-04-05T10:12:46.791Z,11.30
2023-04-05T10:15:15.243Z,12.13
2023-04-05T10:17:49.845Z,12.32
2023-04-05T10:20:21.848Z,12.88
2023-04-05T10:23:02.331Z,12.72
2023-04-05T10:25:44.892Z,11.80
2023-04-05T10:28:30.456Z,12.13
2023-04-05T10:31:06.669Z,12.03
2023-04-05T10:33:42.825Z,11.60
2023-04-05T10:36:23.769Z,11.67
2023-04-05T10:39:04.262Z,11.84
2023-04-05T10:41:36.306Z,12.19
2023-04-05T10:44:14.772Z,11.80
2023-04-05T10:46:46.767Z,12.46
2023-04-05T10:49:23.121Z,12.22
2023-04-05T10:51:53.078Z,12.28
2023-04-05T10:54:21.737Z,12.00
2023-04-05T10:56:51.281Z,12.31
2023-04-05T10:59:20.421Z,12.17
2023-04-05T11:01:49.636Z,12.86
2023-04-05T11:04:19.066Z,13.24
2023-04-05T11:06:48.711Z,12.51
2023-04-05T11:09:20.408Z,12.77
2023-04-05T11:11:50.108Z,12.20
2023-04-05T11:14:19.402Z,12.15
2023-04-05T11:16:49.744Z,12.55
2023-04-05T11:19:19.017Z,13.14
2023-04-05T11:21:47.825Z,13.40
2023-04-05T11:24:18.933Z,12.67
2023-04-05T11:26:56.805Z,13.11
2023-04-05T11:29:51.262Z,13.05
2023-04-05T11:32:21.745Z,13.32
2023-04-05T11:35:01.356Z,13.25
2023-04-05T11:37:48.316Z,13.26
2023-04-05T11:40:29.315Z,13.40
2023-04-05T11:43:05.902Z,13.88
2023-04-05T11:45:36.159Z,14.12
2023-04-05T11:48:06.596Z,13.43
2023-04-05T11:50:36.956Z,12.02
2023-04-05T11:53:15.685Z,11.86
2023-04-05T11:55:47.532Z,12.17
2023-04-05T11:58:17.029Z,13.30
2023-04-05T12:00:47.548Z,13.15
2023-04-05T12:03:16.909Z,13.06
2023-04-05T12:05:49.970Z,13.93
2023-04-05T12:08:20.110Z,13.42
2023-04-05T12:10:57.075Z,14.18
2023-04-05T12:13:30.156Z,13.94
2023-04-05T12:16:02.302Z,14.04
2023-04-05T12:18:33.856Z,13.55
2023-04-05T12:21:07.289Z,13.52
2023-04-05T12:23:38.595Z,13.39
2023-04-05T12:26:09.841Z,12.20
2023-04-05T12:28:51.176Z,12.94
2023-04-05T12:31:19.896Z,13.63
2023-04-05T12:33:48.689Z,13.08
2023-04-05T12:36:17.087Z,12.24
2023-04-05T12:38:45.661Z,12.56
2023-04-05T12:41:16.009Z,12.14
2023-04-05T12:43:44.472Z,12.78
2023-04-05T12:46:20.284Z,13.41
2023-04-05T12:48:53.524Z,13.39
2023-04-05T12:51:21.981Z,12.99
2023-04-05T12:53:50.984Z,13.00
2023-04-05T12:56:22.979Z,13.12
2023-04-05T12:58:52.100Z,12.31
2023-04-05T13:01:21.378Z,13.44
2023-04-05T13:03:53.398Z,13.90
2023-04-05T13:06:26.091Z,14.49
2023-04-05T13:08:57.257Z,14.32
2023-04-05T13:11:27.147Z,14.44
2023-04-05T13:13:55.628Z,14.51
2023-04-05T13:16:25.432Z,14.78
2023-04-05T13:18:54.020Z,14.74
2023-04-05T13:21:22.377Z,14.68
2023-04-05T13:23:52.126Z,15.00
2023-04-05T13:26:21.103Z,14.96
2023-04-05T13:28:53.311Z,15.42
2023-04-05T13:31:21.491Z,15.38
2023-04-05T13:33:51.125Z,15.27
2023-04-05T13:36:19.339Z,15.13
2023-04-05T13:38:49.621Z,15.76
2023-04-05T13:41:18.501Z,15.44
2023-04-05T13:43:47.327Z,15.65
2023-04-05T13:46:17.302Z,15.89
2023-04-05T13:48:45.657Z,14.91
2023-04-05T13:51:13.985Z,14.03
2023-04-05T13:53:42.872Z,14.44
2023-04-05T13:56:13.639Z,14.83
2023-04-05T13:58:42.299Z,15.75
2023-04-05T14:01:10.969Z,15.25
2023-04-05T14:03:41.196Z,15.91
2023-04-05T14:06:09.632Z,15.19
2023-04-05T14:08:38.710Z,15.09
2023-04-05T14:11:07.967Z,15.60
2023-04-05T14:13:37.287Z,15.37
2023-04-05T14:16:06.354Z,15.43
2023-04-05T14:18:34.669Z,14.62
2023-04-05T14:21:04.405Z,14.82
2023-04-05T14:23:32.551Z,15.14
2023-04-05T14:26:04.272Z,14.91
2023-04-05T14:28:32.597Z,14.20
2023-04-05T14:31:01.426Z,15.21
2023-04-05T14:33:30.072Z,15.38
2023-04-05T14:35:58.492Z,15.51
2023-04-05T14:38:28.894Z,15.76
2023-04-05T14:40:57.692Z,15.48
2023-04-05T14:43:26.702Z,15.48
2023-04-05T14:45:55.334Z,15.27
2023-04-05T14:48:23.931Z,15.59
2023-04-05T14:50:52.631Z,14.58
2023-04-05T14:53:21.681Z,14.74
2023-04-05T14:55:52.347Z,14.63
2023-04-05T14:58:20.678Z,13.70
2023-04-05T15:00:50.638Z,14.00
2023-04-05T15:03:20.255Z,13.63
2023-04-05T15:05:49.463Z,13.47
2023-04-05T15:08:18.209Z,13.62
2023-04-05T15:10:47.520Z,13.67
2023-04-05T15:13:19.607Z,13.76
2023-04-05T15:15:50.272Z,14.43
2023-04-05T15:18:19.793Z,14.81
2023-04-05T15:20:50.010Z,14.29
2023-04-05T15:23:21.033Z,14.10
2023-04-05T15:25:49.395Z,14.10
2023-04-05T15:28:20.421Z,14.03
2023-04-05T15:30:51.232Z,14.02
2023-04-05T15:33:19.585Z,13.64
2023-04-05T15:35:48.366Z,12.92
2023-04-05T15:38:17.328Z,12.58
2023-04-05T15:40:49.518Z,12.65
2023-04-05T15:43:18.118Z,12.41
2023-04-05T15:45:48.226Z,12.29
2023-04-05T15:48:16.831Z,12.17
2023-04-05T15:50:46.256Z,11.72
2023-04-05T15:53:14.678Z,11.69
2023-04-05T15:55:44.199Z,11.71
2023-04-05T15:58:12.544Z,11.10
2023-04-05T16:00:41.451Z,11.41
2023-04-05T16:03:11.798Z,11.05
2023-04-05T16:05:40.747Z,10.81
2023-04-05T16:08:09.385Z,10.83
2023-04-05T16:10:38.150Z,10.83
2023-04-05T16:13:06.462Z,10.68
2023-04-05T16:15:34.894Z,10.67
2023-04-05T16:18:03.534Z,10.55
2023-04-05T16:20:33.632Z,10.49
2023-04-05T16:23:02.201Z,10.32
2023-04-05T16:25:32.277Z,10.16
2023-04-05T16:28:02.097Z,10.19
2023-04-05T16:30:31.269Z,10.12
2023-04-05T16:33:00.100Z,9.99
2023-04-05T16:35:28.693Z,9.89
2023-04-05T16:38:00.467Z,9.77
2023-04-05T16:40:28.780Z,9.60
2023-04-05T16:42:58.302Z,9.59
2023-04-05T16:45:29.017Z,9.45
2023-04-05T16:47:57.713Z,9.40
2023-04-05T16:50:26.579Z,9.46
2023-04-05T16:52:55.410Z,9.39
2023-04-05T16:55:25.292Z,9.35
2023-04-05T16:57:56.823Z,9.19
2023-04-05T17:00:27.585Z,9.04
2023-04-05T17:02:57.553Z,8.98
2023-04-05T17:05:28.272Z,9.08
2023-04-05T17:07:57.077Z,8.79
2023-04-05T17:10:27.074Z,8.67
2023-04-05T17:12:56.189Z,8.60
2023-04-05T17:15:24.654Z,8.53
2023-04-05T17:17:53.379Z,8.37
2023-04-05T17:20:21.923Z,8.26
2023-04-05T17:22:51.323Z,8.25
2023-04-05T17:25:20.364Z,8.18
2023-04-05T17:27:50.398Z,8.13
2023-04-05T17:30:18.991Z,8.02
2023-04-05T17:32:47.746Z,7.94
2023-04-05T17:35:16.630Z,7.78
2023-04-05T17:37:45.083Z,7.77
2023-04-05T17:40:14.978Z,7.86
2023-04-05T17:42:43.961Z,7.77
2023-04-05T17:45:13.767Z,7.70
2023-04-05T17:47:42.026Z,7.61
2023-04-05T17:50:11.343Z,7.44
2023-04-05T17:52:41.254Z,7.39
2023-04-05T17:55:11.208Z,7.33
2023-04-05T17:57:39.567Z,7.17
2023-04-05T18:00:09.105Z,6.95
2023-04-05T18:02:40.761Z,6.74
2023-04-05T18:05:10.163Z,6.56
2023-04-05T18:07:38.931Z,6.36
2023-04-05T18:10:08.629Z,6.16
2023-04-05T18:12:37.355Z,5.95
2023-04-05T18:15:06.698Z,5.77
2023-04-05T18:17:35.334Z,5.59
2023-04-05T18:20:08.296Z,5.45
2023-04-05T18:22:37.160Z,5.38
2023-04-05T18:25:06.728Z,5.23
2023-04-05T18:27:36.570Z,5.05
2023-04-05T18:30:14.339Z,4.92
2023-04-05T18:32:45.208Z,4.85
2023-04-05T18:35:27.298Z,4.76
2023-04-05T18:37:55.979Z,4.63
2023-04-05T18:40:27.273Z,4.48
2023-04-05T18:42:58.713Z,4.41
2023-04-05T18:45:32.828Z,4.39
2023-04-05T18:48:06.113Z,4.33
2023-04-05T18:50:38.020Z,4.31
2023-04-05T18:53:15.478Z,4.21
2023-04-05T18:55:46.611Z,4.11
2023-04-05T18:58:17.024Z,4.05
2023-04-05T19:00:52.824Z,3.99
2023-04-05T19:03:28.760Z,3.93
2023-04-05T19:06:04.094Z,3.99
2023-04-05T19:08:35.048Z,4.10
2023-04-05T19:11:03.592Z,4.26
2023-04-05T19:13:41.009Z,4.34
2023-04-05T19:16:13.292Z,4.26
2023-04-05T19:18:42.214Z,4.20
2023-04-05T19:21:15.152Z,4.07
2023-04-05T19:23:48.002Z,4.00
2023-04-05T19:26:22.622Z,3.81
2023-04-05T19:28:57.379Z,3.68
2023-04-05T19:31:29.606Z,3.56
2023-04-05T19:33:58.082Z,3.46
2023-04-05T19:36:36.612Z,3.33
2023-04-05T19:39:11.073Z,3.21
2023-04-05T19:41:39.276Z,3.18
2023-04-05T19:44:11.786Z,3.12
2023-04-05T19:46:43.150Z,3.31
2023-04-05T19:49:14.526Z,3.40
2023-04-05T19:51:44.619Z,3.53
2023-04-05T19:54:33.047Z,3.42
2023-04-05T19:57:03.571Z,3.34
2023-04-05T19:59:37.397Z,3.37
2023-04-05T20:02:20.585Z,3.31
2023-04-05T20:04:50.018Z,3.23
2023-04-05T20:07:26.760Z,3.16
2023-04-05T20:09:58.594Z,3.14
2023-04-05T20:12:36.044Z,3.07
2023-04-05T20:15:33.819Z,3.09
2023-04-05T20:18:19.553Z,3.09
2023-04-05T20:20:48.739Z,2.97
2023-04-05T20:23:22.469Z,3.04
2023-04-05T20:25:56.253Z,2.98
2023-04-05T20:28:43.219Z,2.88
2023-04-05T20:31:20.979Z,2.81
2023-04-05T20:33:58.504Z,2.81
2023-04-05T20:36:34.563Z,2.78
2023-04-05T20:39:14.978Z,2.61
2023-04-05T20:41:55.114Z,2.55
2023-04-05T20:44:24.240Z,2.51
2023-04-05T20:46:57.086Z,2.38
2023-04-05T20:49:29.116Z,2.27
2023-04-05T20:51:58.127Z,2.25
2023-04-05T20:54:28.160Z,2.33
2023-04-05T20:56:58.350Z,2.55
2023-04-05T20:59:27.347Z,2.53
2023-04-05T21:01:56.249Z,2.50
2023-04-05T21:04:24.989Z,2.36
2023-04-05T21:06:54.650Z,2.26
2023-04-05T21:09:23.503Z,2.15
2023-04-05T21:11:57.256Z,2.08
2023-04-05T21:14:28.590Z,2.03
2023-04-05T21:16:58.085Z,2.09
2023-04-05T21:19:27.547Z,2.21
2023-04-05T21:21:57.549Z,2.15
2023-04-05T21:24:26.039Z,2.08
2023-04-05T21:26:56.500Z,2.01
2023-04-05T21:29:25.451Z,1.99
2023-04-05T21:31:54.145Z,1.97
2023-04-05T21:34:22.673Z,2.02
2023-04-05T21:36:54.590Z,2.04
2023-04-05T21:39:23.085Z,2.25
2023-04-05T21:41:51.608Z,2.22
2023-04-05T21:44:21.426Z,2.26
2023-04-05T21:46:49.688Z,2.32
2023-04-05T21:49:18.327Z,2.37
2023-04-05T21:51:46.653Z,2.43
2023-04-05T21:54:16.436Z,2.49
2023-04-05T21:56:44.708Z,2.49
2023-04-05T21:59:14.614Z,2.47
2023-04-05T22:01:44.429Z,2.40
2023-04-05T22:04:12.768Z,2.32
2023-04-05T22:06:41.742Z,2.21
2023-04-05T22:09:11.025Z,2.19
2023-04-05T22:11:42.265Z,2.06
2023-04-05T22:14:11.485Z,1.94
2023-04-05T22:16:41.346Z,1.84
2023-04-05T22:19:12.307Z,1.78
2023-04-05T22:21:42.334Z,1.71
2023-04-05T22:24:12.706Z,1.61
2023-04-05T22:26:42.189Z,1.49
2023-04-05T22:29:11.749Z,1.45
2023-04-05T22:31:40.241Z,1.37
2023-04-05T22:34:09.016Z,1.28
2023-04-05T22:36:43.985Z,1.29
2023-04-05T22:39:12.864Z,1.40
2023-04-05T22:41:41.671Z,1.30
2023-04-05T22:44:10.344Z,1.36
2023-04-05T22:46:39.891Z,1.21
2023-04-05T22:49:10.677Z,1.11
2023-04-05T22:51:40.632Z,1.01
2023-04-05T22:54:09.050Z,0.93
2023-04-05T22:56:38.054Z,0.83
2023-04-05T22:59:09.003Z,0.77
2023-04-05T23:01:37.802Z,0.78
2023-04-05T23:04:08.493Z,0.71
2023-04-05T23:06:42.015Z,0.58
2023-04-05T23:09:11.713Z,0.53
2023-04-05T23:11:42.017Z,0.48
2023-04-05T23:14:10.794Z,0.48
2023-04-05T23:16:39.634Z,0.38
2023-04-05T23:19:08.275Z,0.32
2023-04-05T23:21:37.236Z,0.24
2023-04-05T23:24:07.559Z,0.22
2023-04-05T23:26:36.261Z,0.22
2023-04-05T23:29:04.767Z,0.34
2023-04-05T23:31:33.051Z,0.30
2023-04-05T23:34:01.824Z,0.37
2023-04-05T23:36:30.791Z,0.27
2023-04-05T23:39:01.226Z,0.27
2023-04-05T23:41:32.340Z,0.28
2023-04-05T23:44:00.966Z,0.23
2023-04-05T23:46:29.374Z,0.22
2023-04-05T23:48:57.855Z,0.24
2023-04-05T23:51:28.596Z,0.63
2023-04-05T23:53:56.810Z,0.55
2023-04-05T23:56:26.711Z,0.61
2023-04-05T23:58:56.655Z,0.70
